createdAt,value
2022-09-02T00:00:09.723Z,20.95
2022-09-02T00:01:24.927Z,20.91
2022-09-02T00:02:27.147Z,20.84
2022-09-02T00:03:31.597Z,20.77
2022-09-02T00:04:33.397Z,20.76
2022-09-02T00:05:35.066Z,20.62
2022-09-02T00:06:37.659Z,20.57
2022-09-02T00:07:39.363Z,20.59
2022-09-02T00:08:42.225Z,20.61
2022-09-02T00:09:43.861Z,20.54
2022-09-02T00:10:46.054Z,20.49
2022-09-02T00:11:50.087Z,20.43
2022-09-02T00:12:51.814Z,20.34
2022-09-02T00:13:53.987Z,20.24
2022-09-02T00:14:55.555Z,20.19
2022-09-02T00:15:57.137Z,20.16
2022-09-02T00:17:01.008Z,20.10
2022-09-02T00:18:03.838Z,20.07
2022-09-02T00:19:05.611Z,20.02
2022-09-02T00:20:07.555Z,20.01
2022-09-02T00:21:13.725Z,19.96
2022-09-02T00:22:15.310Z,19.85
2022-09-02T00:23:17.636Z,19.76
2022-09-02T00:24:19.740Z,19.75
2022-09-02T00:25:21.680Z,19.77
2022-09-02T00:26:23.353Z,19.71
2022-09-02T00:27:25.355Z,19.64
2022-09-02T00:28:26.920Z,19.58
2022-09-02T00:29:29.034Z,19.49
2022-09-02T00:30:30.950Z,19.52
2022-09-02T00:31:33.818Z,19.52
2022-09-02T00:32:35.549Z,19.50
2022-09-02T00:33:37.149Z,19.46
2022-09-02T00:34:38.825Z,19.42
2022-09-02T00:35:41.355Z,19.45
2022-09-02T00:36:43.404Z,19.41
2022-09-02T00:37:44.993Z,19.39
2022-09-02T00:38:47.216Z,19.39
2022-09-02T00:39:48.964Z,19.38
2022-09-02T00:40:50.798Z,19.39
2022-09-02T00:41:52.772Z,19.37
2022-09-02T00:42:56.186Z,19.34
2022-09-02T00:44:01.995Z,19.35
2022-09-02T00:45:06.940Z,19.36
2022-09-02T00:46:09.683Z,19.41
2022-09-02T00:47:11.736Z,19.40
2022-09-02T00:48:13.499Z,19.47
2022-09-02T00:49:25.017Z,19.49
2022-09-02T00:50:30.977Z,19.51
2022-09-02T00:51:44.655Z,19.54
2022-09-02T00:52:56.618Z,19.59
2022-09-02T00:53:58.546Z,19.61
2022-09-02T00:55:05.212Z,19.59
2022-09-02T00:56:13.096Z,19.64
2022-09-02T00:57:19.736Z,19.58
2022-09-02T00:58:25.933Z,19.54
2022-09-02T00:59:41.128Z,19.48
2022-09-02T01:00:46.522Z,19.38
2022-09-02T01:01:48.804Z,19.38
2022-09-02T01:02:54.419Z,19.37
2022-09-02T01:03:56.512Z,19.35
2022-09-02T01:05:00.547Z,19.35
2022-09-02T01:06:02.772Z,19.35
2022-09-02T01:07:06.079Z,19.33
2022-09-02T01:08:07.855Z,19.35
2022-09-02T01:09:15.143Z,19.38
2022-09-02T01:10:21.629Z,19.41
2022-09-02T01:11:24.153Z,19.38
2022-09-02T01:12:27.850Z,19.37
2022-09-02T01:13:31.720Z,19.38
2022-09-02T01:14:35.380Z,19.38
2022-09-02T01:15:41.064Z,19.39
2022-09-02T01:16:49.683Z,19.37
2022-09-02T01:17:52.065Z,19.40
2022-09-02T01:18:57.410Z,19.40
2022-09-02T01:20:04.855Z,19.47
2022-09-02T01:21:06.788Z,19.50
2022-09-02T01:22:24.016Z,19.56
2022-09-02T01:23:28.150Z,19.59
2022-09-02T01:24:31.713Z,19.55
2022-09-02T01:25:34.741Z,19.53
2022-09-02T01:26:36.323Z,19.53
2022-09-02T01:27:38.615Z,19.55
2022-09-02T01:28:40.341Z,19.53
2022-09-02T01:29:42.027Z,19.57
2022-09-02T01:30:48.545Z,19.66
2022-09-02T01:31:50.665Z,19.67
2022-09-02T01:32:53.621Z,19.73
2022-09-02T01:33:55.320Z,19.83
2022-09-02T01:34:57.938Z,19.95
2022-09-02T01:35:59.943Z,20.12
2022-09-02T01:37:01.816Z,20.17
2022-09-02T01:38:04.249Z,20.20
2022-09-02T01:39:06.404Z,20.24
2022-09-02T01:40:10.646Z,20.28
2022-09-02T01:41:12.313Z,20.30
2022-09-02T01:42:14.745Z,20.37
2022-09-02T01:43:21.807Z,20.44
2022-09-02T01:44:25.076Z,20.49
2022-09-02T01:45:26.826Z,20.54
2022-09-02T01:46:28.425Z,20.59
2022-09-02T01:47:30.560Z,20.64
2022-09-02T01:48:32.185Z,20.68
2022-09-02T01:49:35.336Z,20.74
2022-09-02T01:50:45.130Z,20.72
2022-09-02T01:51:49.639Z,20.67
2022-09-02T01:52:51.325Z,20.62
2022-09-02T01:53:52.894Z,20.59
2022-09-02T01:54:55.211Z,20.51
2022-09-02T01:55:56.967Z,20.49
2022-09-02T01:56:58.639Z,20.41
2022-09-02T01:58:00.803Z,20.46
2022-09-02T01:59:03.018Z,20.53
2022-09-02T02:00:08.428Z,20.63
2022-09-02T02:01:10.741Z,20.66
2022-09-02T02:02:14.693Z,20.68
2022-09-02T02:03:16.785Z,20.70
2022-09-02T02:04:18.400Z,20.72
2022-09-02T02:05:20.174Z,20.76
2022-09-02T02:06:21.797Z,20.80
2022-09-02T02:07:24.858Z,20.82
2022-09-02T02:08:26.481Z,20.87
2022-09-02T02:09:28.511Z,20.90
2022-09-02T02:10:30.233Z,20.93
2022-09-02T02:11:32.041Z,20.98
2022-09-02T02:12:33.723Z,21.00
2022-09-02T02:13:35.547Z,21.00
2022-09-02T02:14:37.705Z,20.96
2022-09-02T02:15:41.739Z,20.87
2022-09-02T02:16:43.645Z,20.80
2022-09-02T02:17:46.012Z,20.82
2022-09-02T02:18:47.878Z,20.85
2022-09-02T02:19:49.516Z,20.89
2022-09-02T02:20:51.136Z,20.90
2022-09-02T02:21:53.848Z,20.94
2022-09-02T02:22:55.744Z,20.98
2022-09-02T02:24:00.429Z,21.00
2022-09-02T02:25:02.055Z,21.05
2022-09-02T02:26:04.184Z,21.07
2022-09-02T02:27:06.116Z,21.08
2022-09-02T02:28:07.839Z,21.06
2022-09-02T02:29:09.887Z,21.04
2022-09-02T02:30:13.648Z,21.08
2022-09-02T02:31:15.298Z,21.11
2022-09-02T02:32:18.548Z,21.14
2022-09-02T02:33:20.214Z,21.18
2022-09-02T02:34:22.279Z,21.19
2022-09-02T02:35:23.937Z,21.18
2022-09-02T02:36:26.020Z,21.20
2022-09-02T02:37:27.708Z,21.24
2022-09-02T02:38:29.686Z,21.31
2022-09-02T02:39:31.979Z,21.33
2022-09-02T02:40:33.631Z,21.35
2022-09-02T02:41:36.181Z,21.40
2022-09-02T02:42:38.271Z,21.42
2022-09-02T02:43:40.559Z,21.45
2022-09-02T02:44:42.686Z,21.45
2022-09-02T02:45:44.291Z,21.48
2022-09-02T02:46:45.991Z,21.52
2022-09-02T02:47:47.683Z,21.51
2022-09-02T02:48:49.578Z,21.49
2022-09-02T02:49:51.140Z,21.50
2022-09-02T02:50:52.735Z,21.52
2022-09-02T02:51:54.339Z,21.54
2022-09-02T02:52:56.450Z,21.54
2022-09-02T02:53:59.802Z,21.56
2022-09-02T02:55:01.860Z,21.56
2022-09-02T02:56:04.469Z,21.54
2022-09-02T02:57:07.813Z,21.55
2022-09-02T02:58:09.619Z,21.53
2022-09-02T02:59:11.369Z,21.53
2022-09-02T03:00:22.491Z,21.53
2022-09-02T03:01:24.128Z,21.50
2022-09-02T03:02:25.793Z,21.50
2022-09-02T03:03:28.013Z,21.49
2022-09-02T03:04:29.950Z,21.48
2022-09-02T03:05:32.426Z,21.49
2022-09-02T03:06:35.799Z,21.49
2022-09-02T03:07:37.432Z,21.50
2022-09-02T03:08:39.044Z,21.52
2022-09-02T03:09:40.808Z,21.52
2022-09-02T03:10:43.171Z,21.53
2022-09-02T03:11:44.725Z,21.55
2022-09-02T03:12:47.602Z,21.57
2022-09-02T03:13:52.038Z,21.57
2022-09-02T03:14:53.767Z,21.50
2022-09-02T03:15:55.385Z,21.33
2022-09-02T03:16:57.416Z,21.24
2022-09-02T03:17:59.573Z,21.22
2022-09-02T03:19:01.951Z,21.09
2022-09-02T03:20:05.897Z,20.95
2022-09-02T03:21:08.780Z,20.81
2022-09-02T03:22:11.006Z,20.64
2022-09-02T03:23:13.238Z,20.57
2022-09-02T03:24:15.131Z,20.48
2022-09-02T03:25:20.720Z,20.43
2022-09-02T03:26:24.712Z,20.35
2022-09-02T03:27:26.331Z,20.28
2022-09-02T03:28:28.359Z,20.23
2022-09-02T03:29:30.136Z,20.18
2022-09-02T03:30:33.583Z,20.11
2022-09-02T03:31:35.327Z,20.10
2022-09-02T03:32:37.573Z,20.09
2022-09-02T03:33:39.345Z,20.10
2022-09-02T03:34:41.846Z,20.16
2022-09-02T03:35:45.367Z,20.10
2022-09-02T03:36:47.340Z,20.00
2022-09-02T03:37:51.215Z,20.00
2022-09-02T03:38:53.147Z,20.00
2022-09-02T03:39:54.693Z,19.97
2022-09-02T03:40:56.354Z,19.89
2022-09-02T03:41:57.965Z,19.80
2022-09-02T03:43:00.705Z,19.74
2022-09-02T03:44:02.644Z,19.69
2022-09-02T03:45:05.555Z,19.67
2022-09-02T03:46:07.410Z,19.67
2022-09-02T03:47:09.097Z,19.70
2022-09-02T03:48:13.250Z,19.68
2022-09-02T03:49:15.026Z,19.70
2022-09-02T03:50:25.766Z,19.70
2022-09-02T03:51:28.073Z,19.70
2022-09-02T03:52:29.891Z,19.70
2022-09-02T03:53:31.896Z,19.70
2022-09-02T03:54:33.477Z,19.68
2022-09-02T03:55:37.308Z,19.65
2022-09-02T03:56:39.050Z,19.66
2022-09-02T03:57:41.614Z,19.67
2022-09-02T03:58:45.446Z,19.65
2022-09-02T03:59:47.018Z,19.72
2022-09-02T04:00:53.257Z,19.72
2022-09-02T04:01:55.722Z,19.72
2022-09-02T04:02:59.017Z,19.69
2022-09-02T04:04:01.768Z,19.68
2022-09-02T04:05:04.197Z,19.71
2022-09-02T04:06:06.387Z,19.72
2022-09-02T04:07:07.967Z,19.75
2022-09-02T04:08:09.548Z,19.80
2022-09-02T04:09:11.150Z,19.84
2022-09-02T04:10:12.889Z,19.94
2022-09-02T04:11:17.844Z,20.01
2022-09-02T04:12:19.476Z,20.01
2022-09-02T04:13:21.320Z,20.04
2022-09-02T04:14:23.120Z,20.13
2022-09-02T04:15:25.239Z,20.21
2022-09-02T04:16:29.767Z,20.24
2022-09-02T04:17:31.593Z,20.27
2022-09-02T04:18:33.234Z,20.27
2022-09-02T04:19:34.993Z,20.20
2022-09-02T04:20:39.679Z,20.16
2022-09-02T04:21:42.140Z,20.12
2022-09-02T04:22:44.565Z,20.05
2022-09-02T04:23:46.236Z,20.02
2022-09-02T04:24:47.811Z,20.01
2022-09-02T04:25:49.559Z,19.99
2022-09-02T04:26:51.221Z,20.07
2022-09-02T04:27:52.813Z,20.12
2022-09-02T04:28:54.588Z,20.15
2022-09-02T04:29:56.420Z,20.07
2022-09-02T04:30:58.240Z,20.03
2022-09-02T04:31:59.991Z,20.01
2022-09-02T04:33:01.643Z,19.92
2022-09-02T04:34:03.725Z,19.88
2022-09-02T04:35:05.704Z,19.89
2022-09-02T04:36:10.161Z,19.89
2022-09-02T04:37:14.642Z,19.88
2022-09-02T04:38:17.968Z,19.89
2022-09-02T04:39:19.882Z,19.91
2022-09-02T04:40:21.573Z,19.97
2022-09-02T04:41:27.013Z,20.05
2022-09-02T04:42:28.567Z,20.15
2022-09-02T04:43:30.191Z,20.25
2022-09-02T04:44:32.170Z,20.35
2022-09-02T04:45:33.753Z,20.47
2022-09-02T04:46:35.426Z,20.51
2022-09-02T04:47:37.133Z,20.55
2022-09-02T04:48:39.317Z,20.59
2022-09-02T04:49:43.232Z,20.58
2022-09-02T04:50:45.332Z,20.54
2022-09-02T04:51:46.967Z,20.53
2022-09-02T04:52:48.516Z,20.55
2022-09-02T04:53:52.521Z,20.54
2022-09-02T04:54:54.155Z,20.51
2022-09-02T04:55:58.111Z,20.51
2022-09-02T04:57:00.531Z,20.51
2022-09-02T04:58:02.168Z,20.47
2022-09-02T04:59:04.404Z,20.47
2022-09-02T05:00:07.486Z,20.47
2022-09-02T05:01:14.881Z,20.51
2022-09-02T05:02:16.683Z,20.58
2022-09-02T05:03:20.139Z,20.57
2022-09-02T05:04:23.069Z,20.60
2022-09-02T05:05:24.688Z,20.66
2022-09-02T05:06:28.207Z,20.65
2022-09-02T05:07:31.100Z,20.67
2022-09-02T05:08:33.592Z,20.67
2022-09-02T05:09:35.263Z,20.66
2022-09-02T05:10:40.022Z,20.59
2022-09-02T05:11:41.887Z,20.55
2022-09-02T05:12:43.515Z,20.53
2022-09-02T05:13:51.412Z,20.45
2022-09-02T05:14:53.465Z,20.42
2022-09-02T05:15:55.088Z,20.40
2022-09-02T05:16:56.834Z,20.37
2022-09-02T05:17:58.412Z,20.32
2022-09-02T05:19:00.620Z,20.26
2022-09-02T05:20:04.826Z,20.21
2022-09-02T05:21:06.929Z,20.18
2022-09-02T05:22:08.622Z,20.13
2022-09-02T05:23:12.235Z,20.07
2022-09-02T05:24:14.538Z,20.02
2022-09-02T05:25:16.363Z,19.99
2022-09-02T05:26:18.201Z,19.97
2022-09-02T05:27:20.418Z,19.98
2022-09-02T05:28:22.850Z,19.97
2022-09-02T05:29:24.816Z,20.00
2022-09-02T05:30:26.449Z,19.98
2022-09-02T05:31:29.113Z,19.99
2022-09-02T05:32:34.463Z,19.97
2022-09-02T05:33:41.172Z,19.98
2022-09-02T05:34:42.988Z,20.00
2022-09-02T05:35:45.877Z,20.02
2022-09-02T05:36:48.648Z,20.09
2022-09-02T05:37:50.245Z,20.11
2022-09-02T05:38:52.185Z,20.09
2022-09-02T05:39:53.911Z,20.14
2022-09-02T05:40:56.117Z,20.16
2022-09-02T05:41:58.506Z,20.20
2022-09-02T05:43:00.349Z,20.23
2022-09-02T05:44:03.908Z,20.26
2022-09-02T05:45:06.696Z,20.30
2022-09-02T05:46:10.707Z,20.27
2022-09-02T05:47:13.034Z,20.30
2022-09-02T05:48:33.554Z,20.28
2022-09-02T05:49:35.118Z,20.25
2022-09-02T05:50:37.871Z,20.25
2022-09-02T05:51:49.580Z,20.31
2022-09-02T05:52:51.493Z,20.40
2022-09-02T05:53:54.940Z,20.48
2022-09-02T05:54:56.804Z,20.49
2022-09-02T05:55:58.951Z,20.52
2022-09-02T05:57:04.889Z,20.54
2022-09-02T05:58:06.476Z,20.59
2022-09-02T05:59:08.790Z,20.63
2022-09-02T06:00:11.254Z,20.68
2022-09-02T06:01:19.965Z,20.76
2022-09-02T06:02:22.792Z,20.76
2022-09-02T06:03:24.622Z,20.76
2022-09-02T06:04:26.422Z,20.78
2022-09-02T06:05:28.055Z,20.76
2022-09-02T06:06:30.359Z,20.78
2022-09-02T06:07:31.966Z,20.87
2022-09-02T06:08:34.691Z,20.93
2022-09-02T06:09:36.354Z,20.99
2022-09-02T06:10:42.271Z,21.04
2022-09-02T06:11:46.300Z,21.12
2022-09-02T06:12:48.812Z,21.17
2022-09-02T06:13:52.601Z,21.24
2022-09-02T06:14:54.235Z,21.24
2022-09-02T06:15:57.946Z,21.24
2022-09-02T06:16:59.785Z,21.25
2022-09-02T06:18:01.402Z,21.26
2022-09-02T06:19:04.953Z,21.24
2022-09-02T06:20:07.141Z,21.26
2022-09-02T06:21:08.790Z,21.28
2022-09-02T06:22:11.452Z,21.31
2022-09-02T06:23:14.870Z,21.29
2022-09-02T06:24:17.098Z,21.31
2022-09-02T06:25:20.954Z,21.32
2022-09-02T06:26:23.024Z,21.27
2022-09-02T06:27:24.759Z,21.25
2022-09-02T06:28:26.585Z,21.26
2022-09-02T06:29:28.219Z,21.20
2022-09-02T06:30:29.920Z,21.16
2022-09-02T06:31:34.648Z,21.10
2022-09-02T06:32:36.535Z,21.05
2022-09-02T06:33:38.287Z,21.04
2022-09-02T06:34:41.036Z,21.02
2022-09-02T06:35:45.736Z,21.00
2022-09-02T06:36:49.086Z,20.94
2022-09-02T06:37:51.400Z,20.87
2022-09-02T06:38:55.072Z,20.82
2022-09-02T06:39:57.249Z,20.72
2022-09-02T06:40:59.149Z,20.71
2022-09-02T06:42:01.087Z,20.69
2022-09-02T06:43:02.765Z,20.69
2022-09-02T06:44:07.150Z,20.76
2022-09-02T06:45:09.553Z,20.74
2022-09-02T06:46:23.743Z,20.74
2022-09-02T06:47:25.324Z,20.77
2022-09-02T06:48:27.011Z,20.79
2022-09-02T06:49:29.264Z,20.86
2022-09-02T06:50:30.911Z,20.99
2022-09-02T06:51:39.744Z,21.06
2022-09-02T06:52:41.380Z,21.13
2022-09-02T06:53:42.968Z,21.19
2022-09-02T06:54:44.605Z,21.23
2022-09-02T06:55:46.932Z,21.26
2022-09-02T06:56:50.094Z,21.31
2022-09-02T06:57:51.717Z,21.31
2022-09-02T06:58:53.704Z,21.32
2022-09-02T07:00:01.940Z,21.36
2022-09-02T07:01:04.313Z,21.39
2022-09-02T07:02:06.158Z,21.40
2022-09-02T07:03:28.193Z,21.43
2022-09-02T07:04:48.788Z,21.49
2022-09-02T07:06:11.031Z,21.56
2022-09-02T07:07:12.887Z,21.57
2022-09-02T07:08:14.462Z,21.62
2022-09-02T07:09:19.202Z,21.63
2022-09-02T07:10:20.793Z,21.69
2022-09-02T07:11:24.098Z,21.75
2022-09-02T07:12:27.369Z,21.78
2022-09-02T07:13:29.241Z,21.81
2022-09-02T07:14:31.037Z,21.85
2022-09-02T07:15:33.181Z,21.93
2022-09-02T07:16:38.475Z,21.98
2022-09-02T07:17:40.256Z,22.00
2022-09-02T07:18:43.043Z,22.03
2022-09-02T07:19:45.201Z,22.08
2022-09-02T07:20:48.790Z,22.12
2022-09-02T07:21:51.000Z,22.13
2022-09-02T07:22:52.835Z,22.06
2022-09-02T07:23:55.157Z,22.04
2022-09-02T07:24:58.648Z,22.08
2022-09-02T07:26:00.289Z,22.10
2022-09-02T07:27:01.985Z,22.12
2022-09-02T07:28:03.683Z,22.17
2022-09-02T07:29:08.815Z,22.25
2022-09-02T07:30:12.814Z,22.26
2022-09-02T07:31:16.429Z,22.28
2022-09-02T07:32:18.669Z,22.28
2022-09-02T07:33:20.950Z,22.28
2022-09-02T07:34:22.603Z,22.26
2022-09-02T07:35:24.647Z,22.26
2022-09-02T07:36:27.567Z,22.27
2022-09-02T07:37:29.187Z,22.32
2022-09-02T07:38:31.539Z,22.32
2022-09-02T07:39:33.418Z,22.25
2022-09-02T07:40:36.398Z,22.27
2022-09-02T07:41:40.081Z,22.30
2022-09-02T07:42:41.745Z,22.29
2022-09-02T07:43:46.256Z,22.37
2022-09-02T07:44:50.123Z,22.43
2022-09-02T07:45:53.404Z,22.44
2022-09-02T07:46:55.680Z,22.42
2022-09-02T07:47:57.919Z,22.48
2022-09-02T07:49:01.849Z,22.59
2022-09-02T07:50:21.497Z,22.60
2022-09-02T07:51:24.328Z,22.64
2022-09-02T07:52:32.344Z,22.65
2022-09-02T07:53:35.257Z,22.62
2022-09-02T07:54:36.915Z,22.64
2022-09-02T07:55:41.208Z,22.63
2022-09-02T07:56:43.320Z,22.64
2022-09-02T07:57:45.615Z,22.67
2022-09-02T07:58:47.911Z,22.72
2022-09-02T07:59:49.558Z,22.73
2022-09-02T08:00:52.242Z,22.69
2022-09-02T08:01:54.130Z,22.58
2022-09-02T08:02:56.150Z,22.65
2022-09-02T08:04:00.356Z,22.71
2022-09-02T08:05:05.020Z,22.76
2022-09-02T08:06:07.393Z,22.83
2022-09-02T08:07:09.068Z,22.81
2022-09-02T08:08:10.832Z,22.83
2022-09-02T08:09:12.539Z,22.86
2022-09-02T08:10:16.283Z,22.87
2022-09-02T08:11:17.978Z,22.89
2022-09-02T08:12:21.732Z,22.95
2022-09-02T08:13:27.051Z,22.98
2022-09-02T08:14:29.709Z,22.98
2022-09-02T08:15:32.275Z,22.98
2022-09-02T08:16:34.334Z,22.95
2022-09-02T08:17:36.158Z,22.95
2022-09-02T08:18:37.864Z,22.93
2022-09-02T08:19:39.455Z,22.90
2022-09-02T08:20:41.087Z,22.87
2022-09-02T08:21:42.749Z,22.90
2022-09-02T08:22:46.747Z,22.87
2022-09-02T08:23:53.681Z,22.77
2022-09-02T08:24:55.355Z,22.82
2022-09-02T08:26:00.456Z,22.88
2022-09-02T08:27:02.266Z,22.95
2022-09-02T08:28:04.045Z,23.02
2022-09-02T08:29:07.677Z,23.05
2022-09-02T08:30:10.352Z,23.07
2022-09-02T08:31:12.349Z,23.11
2022-09-02T08:32:14.196Z,23.16
2022-09-02T08:33:15.814Z,23.06
2022-09-02T08:34:17.577Z,22.85
2022-09-02T08:35:19.466Z,22.76
2022-09-02T08:36:21.211Z,22.68
2022-09-02T08:37:22.805Z,22.62
2022-09-02T08:38:24.426Z,22.75
2022-09-02T08:39:26.342Z,22.90
2022-09-02T08:40:37.288Z,23.14
2022-09-02T08:41:57.681Z,23.26
2022-09-02T08:43:01.081Z,23.44
2022-09-02T08:44:05.123Z,23.54
2022-09-02T08:45:14.846Z,23.72
2022-09-02T08:46:18.857Z,23.75
2022-09-02T08:47:25.415Z,23.83
2022-09-02T08:48:40.643Z,23.96
2022-09-02T08:49:47.020Z,23.83
2022-09-02T08:50:52.754Z,24.00
2022-09-02T08:52:01.065Z,24.13
2022-09-02T08:53:16.327Z,24.21
2022-09-02T08:54:46.120Z,24.37
2022-09-02T08:55:54.938Z,24.44
2022-09-02T08:56:58.115Z,24.42
2022-09-02T08:58:01.976Z,24.43
2022-09-02T08:59:04.345Z,24.45
2022-09-02T09:00:07.354Z,24.43
2022-09-02T09:01:18.120Z,24.37
2022-09-02T09:02:25.468Z,24.43
2022-09-02T09:03:33.645Z,24.43
2022-09-02T09:04:38.027Z,24.46
2022-09-02T09:05:54.843Z,24.54
2022-09-02T09:07:11.420Z,24.53
2022-09-02T09:08:25.785Z,24.59
2022-09-02T09:09:30.359Z,24.51
2022-09-02T09:10:32.920Z,24.25
2022-09-02T09:11:57.330Z,24.35
2022-09-02T09:13:08.887Z,24.37
2022-09-02T09:14:31.262Z,24.34
2022-09-02T09:15:59.153Z,24.33
2022-09-02T09:17:08.638Z,24.33
2022-09-02T09:18:19.262Z,24.32
2022-09-02T09:19:33.014Z,24.37
2022-09-02T09:20:38.796Z,24.39
2022-09-02T09:21:42.186Z,24.43
2022-09-02T09:22:44.108Z,24.51
2022-09-02T09:23:46.720Z,24.54
2022-09-02T09:24:50.423Z,24.62
2022-09-02T09:25:56.281Z,24.64
2022-09-02T09:26:59.123Z,24.75
2022-09-02T09:28:01.724Z,24.77
2022-09-02T09:29:04.863Z,24.80
2022-09-02T09:30:14.914Z,24.79
2022-09-02T09:31:22.061Z,24.81
2022-09-02T09:32:30.124Z,24.87
2022-09-02T09:33:31.716Z,24.88
2022-09-02T09:34:52.383Z,24.78
2022-09-02T09:35:56.102Z,24.77
2022-09-02T09:36:58.708Z,24.85
2022-09-02T09:38:12.601Z,24.79
2022-09-02T09:39:18.386Z,24.61
2022-09-02T09:40:25.746Z,24.64
2022-09-02T09:41:29.048Z,24.70
2022-09-02T09:42:36.310Z,24.74
2022-09-02T09:43:37.992Z,24.77
2022-09-02T09:44:45.812Z,24.74
2022-09-02T09:45:49.374Z,24.80
2022-09-02T09:47:06.208Z,24.93
2022-09-02T09:48:19.398Z,24.85
2022-09-02T09:49:27.792Z,24.83
2022-09-02T09:50:29.414Z,24.87
2022-09-02T09:51:31.019Z,24.94
2022-09-02T09:52:51.899Z,24.82
2022-09-02T09:54:16.515Z,24.58
2022-09-02T09:55:24.959Z,24.40
2022-09-02T09:56:32.260Z,24.20
2022-09-02T09:57:44.798Z,24.04
2022-09-02T09:58:48.918Z,24.20
2022-09-02T09:59:50.791Z,24.26
2022-09-02T10:00:56.336Z,24.42
2022-09-02T10:01:58.192Z,24.57
2022-09-02T10:03:06.453Z,24.47
2022-09-02T10:04:42.429Z,24.50
2022-09-02T10:05:40.586Z,24.49
2022-09-02T10:06:43.905Z,24.50
2022-09-02T10:08:01.972Z,24.61
2022-09-02T10:09:23.604Z,24.79
2022-09-02T10:10:27.560Z,24.95
2022-09-02T10:11:30.135Z,24.98
2022-09-02T10:12:33.744Z,25.00
2022-09-02T10:13:37.851Z,25.09
2022-09-02T10:14:42.175Z,25.12
2022-09-02T10:15:59.663Z,25.13
2022-09-02T10:17:42.103Z,25.20
2022-09-02T10:18:51.070Z,25.27
2022-09-02T10:20:08.059Z,25.29
2022-09-02T10:21:29.847Z,25.34
2022-09-02T10:22:59.875Z,25.37
2022-09-02T10:24:36.641Z,25.43
2022-09-02T10:25:52.013Z,25.37
2022-09-02T10:26:57.468Z,25.34
2022-09-02T10:28:31.420Z,25.28
2022-09-02T10:29:47.429Z,25.30
2022-09-02T10:31:20.885Z,25.33
2022-09-02T10:32:27.953Z,25.40
2022-09-02T10:33:40.954Z,25.46
2022-09-02T10:35:11.732Z,25.45
2022-09-02T10:36:25.164Z,25.41
2022-09-02T10:37:53.410Z,25.54
2022-09-02T10:39:08.310Z,25.64
2022-09-02T10:40:19.543Z,25.66
2022-09-02T10:43:33.329Z,25.67
2022-09-02T10:44:58.426Z,25.68
2022-09-02T10:46:01.422Z,25.67
2022-09-02T10:47:29.396Z,25.58
2022-09-02T10:48:43.669Z,24.97
2022-09-02T10:50:03.976Z,24.70
2022-09-02T10:51:42.716Z,24.78
2022-09-02T10:52:59.304Z,24.97
2022-09-02T10:54:48.840Z,25.08
2022-09-02T10:56:01.258Z,25.12
2022-09-02T10:57:10.952Z,25.19
2022-09-02T10:58:19.851Z,25.18
2022-09-02T10:59:49.640Z,25.31
2022-09-02T11:00:55.005Z,25.37
2022-09-02T11:02:06.333Z,25.38
2022-09-02T11:03:14.438Z,25.27
2022-09-02T11:04:27.984Z,25.30
2022-09-02T11:05:52.971Z,25.35
2022-09-02T11:07:04.551Z,25.37
2022-09-02T11:08:14.700Z,25.34
2022-09-02T11:09:52.889Z,25.29
2022-09-02T11:11:01.145Z,25.29
2022-09-02T11:12:22.427Z,25.34
2022-09-02T11:13:44.265Z,25.38
2022-09-02T11:15:13.408Z,25.38
2022-09-02T11:16:19.980Z,25.39
2022-09-02T11:17:44.559Z,25.40
2022-09-02T11:19:00.981Z,25.45
2022-09-02T11:20:27.098Z,25.42
2022-09-02T11:21:58.911Z,25.35
2022-09-02T11:23:04.014Z,25.32
2022-09-02T11:24:21.768Z,25.32
2022-09-02T11:25:41.696Z,25.27
2022-09-02T11:26:49.369Z,25.24
2022-09-02T11:28:06.386Z,25.26
2022-09-02T11:29:27.203Z,25.31
2022-09-02T11:30:57.407Z,25.36
2022-09-02T11:32:29.610Z,25.42
2022-09-02T11:33:59.014Z,25.43
2022-09-02T11:35:07.106Z,25.48
2022-09-02T11:36:08.904Z,25.37
2022-09-02T11:37:46.364Z,25.39
2022-09-02T11:39:10.808Z,25.41
2022-09-02T11:40:34.375Z,25.41
2022-09-02T11:42:04.872Z,25.40
2022-09-02T11:43:33.454Z,25.38
2022-09-02T11:45:09.503Z,25.32
2022-09-02T11:46:20.294Z,25.31
2022-09-02T11:48:00.708Z,25.32
2022-09-02T11:49:18.175Z,25.25
2022-09-02T11:50:41.595Z,25.28
2022-09-02T11:52:05.620Z,25.28
2022-09-02T11:53:19.050Z,25.28
2022-09-02T11:54:24.058Z,25.24
2022-09-02T11:55:40.464Z,25.26
2022-09-02T11:56:45.623Z,25.29
2022-09-02T11:57:57.601Z,25.32
2022-09-02T11:59:00.149Z,25.29
2022-09-02T12:00:04.692Z,25.21
2022-09-02T12:01:18.444Z,25.21
2022-09-02T12:02:56.623Z,25.14
2022-09-02T12:05:37.395Z,25.00
2022-09-02T12:07:09.589Z,25.01
2022-09-02T12:08:34.981Z,25.04
2022-09-02T12:09:51.035Z,24.98
2022-09-02T12:10:52.561Z,24.98
2022-09-02T12:11:55.132Z,25.04
2022-09-02T12:12:56.785Z,25.11
2022-09-02T12:14:01.791Z,25.14
2022-09-02T12:15:06.712Z,25.13
2022-09-02T12:16:41.178Z,25.10
2022-09-02T12:18:05.489Z,25.12
2022-09-02T12:19:10.898Z,25.02
2022-09-02T12:20:43.313Z,25.08
2022-09-02T12:22:17.533Z,25.11
2022-09-02T12:23:51.125Z,25.13
2022-09-02T12:24:55.763Z,25.15
2022-09-02T12:26:02.400Z,25.19
2022-09-02T12:27:07.822Z,25.23
2022-09-02T12:28:25.480Z,25.30
2022-09-02T12:29:27.415Z,25.29
2022-09-02T12:31:05.545Z,25.36
2022-09-02T12:32:08.913Z,25.37
2022-09-02T12:33:13.490Z,25.38
2022-09-02T12:34:20.984Z,25.37
2022-09-02T12:35:57.605Z,25.45
2022-09-02T12:37:01.268Z,25.49
2022-09-02T12:38:11.796Z,25.51
2022-09-02T12:39:35.281Z,25.53
2022-09-02T12:40:49.772Z,25.53
2022-09-02T12:42:06.554Z,25.44
2022-09-02T12:43:25.799Z,25.29
2022-09-02T12:45:01.220Z,25.20
2022-09-02T12:46:41.346Z,25.09
2022-09-02T12:48:01.158Z,24.99
2022-09-02T12:49:29.542Z,24.93
2022-09-02T12:50:54.737Z,24.80
2022-09-02T12:51:58.404Z,24.72
2022-09-02T12:53:12.017Z,24.66
2022-09-02T12:54:15.968Z,24.55
2022-09-02T12:55:31.939Z,24.46
2022-09-02T12:56:33.634Z,24.47
2022-09-02T12:57:40.592Z,24.42
2022-09-02T12:58:48.179Z,24.42
2022-09-02T12:59:51.697Z,24.45
2022-09-02T13:01:01.169Z,24.45
2022-09-02T13:02:05.697Z,24.46
2022-09-02T13:03:36.096Z,24.41
2022-09-02T13:05:00.243Z,24.49
2022-09-02T13:06:11.816Z,24.52
2022-09-02T13:07:25.612Z,24.53
2022-09-02T13:08:58.095Z,24.54
2022-09-02T13:10:14.784Z,24.50
2022-09-02T13:11:28.409Z,24.55
2022-09-02T13:12:51.170Z,24.56
2022-09-02T13:14:30.231Z,24.56
2022-09-02T13:16:18.385Z,24.51
2022-09-02T13:17:42.508Z,24.55
2022-09-02T13:19:05.651Z,24.52
2022-09-02T13:20:40.590Z,24.67
2022-09-02T13:22:24.280Z,24.74
2022-09-02T13:23:31.683Z,24.80
2022-09-02T13:24:53.714Z,24.79
2022-09-02T13:26:49.813Z,24.73
2022-09-02T13:28:31.323Z,24.69
2022-09-02T13:29:45.017Z,24.71
2022-09-02T13:31:11.160Z,24.68
2022-09-02T13:32:22.356Z,24.58
2022-09-02T13:33:25.743Z,24.50
2022-09-02T13:34:29.239Z,24.53
2022-09-02T13:35:31.991Z,24.49
2022-09-02T13:36:40.918Z,24.48
2022-09-02T13:37:45.461Z,24.52
2022-09-02T13:38:47.282Z,24.56
2022-09-02T13:39:48.923Z,24.62
2022-09-02T13:40:50.595Z,24.61
2022-09-02T13:41:52.673Z,24.57
2022-09-02T13:43:02.422Z,24.57
2022-09-02T13:44:12.346Z,24.56
2022-09-02T13:45:19.470Z,24.55
2022-09-02T13:46:21.129Z,24.58
2022-09-02T13:47:22.758Z,24.56
2022-09-02T13:48:38.853Z,24.50
2022-09-02T13:49:42.261Z,24.39
2022-09-02T13:50:46.857Z,24.32
2022-09-02T13:51:51.415Z,24.32
2022-09-02T13:54:34.403Z,24.35
2022-09-02T13:55:38.633Z,24.38
2022-09-02T13:56:43.428Z,24.39
2022-09-02T13:58:29.527Z,24.35
2022-09-02T13:59:36.898Z,24.31
2022-09-02T14:00:41.349Z,24.21
2022-09-02T14:01:54.251Z,24.17
2022-09-02T14:03:07.197Z,24.11
2022-09-02T14:04:15.749Z,24.10
2022-09-02T14:05:22.267Z,24.09
2022-09-02T14:07:49.719Z,24.05
2022-09-02T14:08:56.294Z,24.08
2022-09-02T14:10:00.724Z,24.04
2022-09-02T14:11:08.311Z,24.04
2022-09-02T14:12:11.631Z,24.00
2022-09-02T14:13:14.726Z,23.95
2022-09-02T14:14:18.751Z,23.93
2022-09-02T14:15:27.127Z,23.92
2022-09-02T14:16:36.097Z,23.92
2022-09-02T14:17:37.731Z,23.97
2022-09-02T14:18:39.413Z,23.97
2022-09-02T14:19:41.029Z,23.96
2022-09-02T14:20:59.663Z,23.93
2022-09-02T14:22:02.442Z,23.95
2022-09-02T14:23:04.586Z,23.94
2022-09-02T14:24:13.002Z,23.92
2022-09-02T14:25:16.120Z,23.89
2022-09-02T14:26:30.708Z,23.87
2022-09-02T14:27:32.318Z,23.90
2022-09-02T14:28:35.560Z,23.88